Time;durP1;ratioP1;P1;durP2;ratioP2;P2;SDS_P1;SDS_P2;PMS_P1;PMS_P2;Temp;Humidity;BMP_temperature;BMP_pressure;BME280_temperature;BME280_humidity;BME280_pressure;Samples;Min_cycle;Max_cycle;Signal;HPM_P1;HPM_P2
2022/07/20 00:00:25;;;;;;;5.93;1.85;;;23.90;88.10;;;;;;5004447;28;20065;-78
2022/07/20 00:02:51;;;;;;;3.75;1.63;;;23.90;87.90;;;;;;5020437;28;20543;-78
2022/07/20 00:05:16;;;;;;;3.70;2.00;;;23.80;88.50;;;;;;5017225;28;20045;-78
2022/07/20 00:07:42;;;;;;;3.67;1.40;;;23.80;88.50;;;;;;5022722;28;20131;-78
2022/07/20 00:12:52;;;;;;;6.30;1.77;;;23.70;89.20;;;;;;5023237;28;20120;-78
2022/07/20 00:15:18;;;;;;;7.20;2.03;;;23.60;90.30;;;;;;5009131;28;20543;-77
2022/07/20 00:17:44;;;;;;;5.05;2.28;;;23.50;90.00;;;;;;5001736;28;20124;-78
2022/07/20 00:20:10;;;;;;;8.85;2.22;;;23.60;89.30;;;;;;5009116;28;20136;-77
2022/07/20 00:22:36;;;;;;;4.80;1.67;;;23.50;89.70;;;;;;5006658;28;20041;-77
2022/07/20 00:25:02;;;;;;;5.22;1.52;;;23.40;90.20;;;;;;5023382;28;20586;-78
2022/07/20 00:27:28;;;;;;;6.80;1.75;;;23.30;90.70;;;;;;5015748;28;20492;-78
2022/07/20 00:29:53;;;;;;;3.38;2.10;;;23.20;91.30;;;;;;5018485;28;20124;-78
2022/07/20 00:32:19;;;;;;;3.63;1.95;;;23.20;91.10;;;;;;5006950;28;20863;-78
2022/07/20 00:34:44;;;;;;;8.70;2.25;;;23.20;91.40;;;;;;5003930;28;20033;-78
2022/07/20 00:37:10;;;;;;;2.70;1.90;;;23.10;91.60;;;;;;5011342;28;20052;-78
2022/07/20 00:39:35;;;;;;;4.15;1.58;;;22.90;91.50;;;;;;5022751;28;20045;-78
2022/07/20 00:42:01;;;;;;;6.15;1.88;;;22.90;91.60;;;;;;5017118;28;20472;-77
2022/07/20 00:44:27;;;;;;;5.00;2.28;;;22.80;92.10;;;;;;5018907;28;20465;-77
2022/07/20 00:46:54;;;;;;;9.50;2.17;;;22.70;91.60;;;;;;5010619;28;20049;-78
2022/07/20 00:49:19;;;;;;;9.80;2.10;;;22.70;92.50;;;;;;5019027;28;20407;-78
2022/07/20 00:51:45;;;;;;;8.27;1.95;;;22.60;93.00;;;;;;5015814;28;20034;-78
2022/07/20 00:54:12;;;;;;;3.97;1.90;;;22.40;92.80;;;;;;5023151;28;20568;-77
2022/07/20 00:56:37;;;;;;;6.68;2.80;;;22.40;93.20;;;;;;5018397;28;20049;-77
2022/07/20 00:59:05;;;;;;;10.68;2.17;;;22.30;93.60;;;;;;5003823;28;20147;-77
2022/07/20 01:01:31;;;;;;;4.00;2.42;;;22.20;93.90;;;;;;5022739;28;20557;-77
2022/07/20 01:03:57;;;;;;;3.28;1.70;;;22.10;94.20;;;;;;5016759;28;20484;-77
2022/07/20 01:06:23;;;;;;;7.25;2.92;;;22.10;94.80;;;;;;4995442;28;20091;-78
2022/07/20 01:08:51;;;;;;;6.88;2.25;;;22.00;94.80;;;;;;5021826;28;20514;-77
2022/07/20 01:11:18;;;;;;;6.35;2.28;;;22.00;93.50;;;;;;5016021;28;20258;-77
2022/07/20 01:13:44;;;;;;;5.00;1.90;;;22.00;94.30;;;;;;5019808;28;20061;-78
2022/07/20 01:16:10;;;;;;;6.38;2.05;;;22.00;93.60;;;;;;5018392;28;20045;-78
2022/07/20 01:18:36;;;;;;;4.90;1.60;;;22.00;93.20;;;;;;4995763;28;20045;-77
2022/07/20 01:21:07;;;;;;;6.30;2.13;;;21.90;94.30;;;;;;5005699;28;20566;-78
2022/07/20 01:23:33;;;;;;;6.25;2.50;;;21.90;94.70;;;;;;5011035;28;20049;-77
2022/07/20 01:25:59;;;;;;;5.35;2.30;;;21.90;94.60;;;;;;5013856;28;20092;-78
2022/07/20 01:28:28;;;;;;;3.03;2.10;;;21.90;94.00;;;;;;5019144;28;20052;-78
2022/07/20 01:30:53;;;;;;;4.95;1.98;;;21.80;93.80;;;;;;5022108;28;20093;-78
2022/07/20 01:33:19;;;;;;;4.60;2.35;;;21.80;93.70;;;;;;5020810;28;20073;-78
2022/07/20 01:35:45;;;;;;;3.72;2.05;;;21.80;93.50;;;;;;5017346;28;20037;-78
2022/07/20 01:38:10;;;;;;;5.72;1.92;;;21.70;93.80;;;;;;5013575;28;20039;-78
2022/07/20 01:40:36;;;;;;;4.35;2.25;;;21.70;93.90;;;;;;5019981;28;20482;-77
2022/07/20 01:43:02;;;;;;;3.22;1.58;;;21.70;94.70;;;;;;5020617;28;20033;-77
2022/07/20 01:45:27;;;;;;;7.13;2.28;;;21.60;94.60;;;;;;5012841;28;20088;-77
2022/07/20 01:47:53;;;;;;;8.93;2.17;;;21.60;94.50;;;;;;5004013;28;20065;-78
2022/07/20 01:50:19;;;;;;;9.40;1.92;;;21.60;94.50;;;;;;5014321;28;20049;-77
2022/07/20 01:52:45;;;;;;;10.45;2.83;;;21.60;94.90;;;;;;5002045;28;20053;-77
2022/07/20 01:55:10;;;;;;;3.05;1.60;;;21.50;94.80;;;;;;5018596;28;20044;-78
2022/07/20 01:57:36;;;;;;;4.85;1.85;;;21.40;95.20;;;;;;5019127;28;20042;-78
2022/07/20 02:00:05;;;;;;;10.55;2.45;;;21.40;95.70;;;;;;5001985;28;20492;-78
2022/07/20 02:02:30;;;;;;;6.45;2.67;;;21.40;95.40;;;;;;5004789;28;20069;-77
2022/07/20 02:04:56;;;;;;;3.28;2.20;;;21.40;95.20;;;;;;5020254;28;20076;-78
2022/07/20 02:07:21;;;;;;;4.20;2.55;;;21.30;95.20;;;;;;5020576;28;20073;-77
2022/07/20 02:09:47;;;;;;;3.92;1.88;;;21.20;95.70;;;;;;5015282;28;20100;-77
2022/07/20 02:12:12;;;;;;;5.30;2.60;;;21.20;95.30;;;;;;5015957;28;20029;-77
2022/07/20 02:14:38;;;;;;;6.65;2.50;;;21.20;95.30;;;;;;4993336;28;20048;-78
2022/07/20 02:17:04;;;;;;;2.65;2.30;;;21.20;94.60;;;;;;5021667;28;20111;-78
2022/07/20 02:19:29;;;;;;;5.60;2.38;;;21.10;94.60;;;;;;5001857;28;20045;-78
2022/07/20 02:21:55;;;;;;;9.30;3.10;;;21.20;94.70;;;;;;5016063;28;20037;-77
2022/07/20 02:24:20;;;;;;;5.78;2.00;;;21.10;94.80;;;;;;5018312;28;20076;-79
2022/07/20 02:26:46;;;;;;;6.60;2.20;;;21.10;94.90;;;;;;5016700;28;20585;-77
2022/07/20 02:29:12;;;;;;;4.32;1.75;;;21.10;94.60;;;;;;5015204;28;20048;-78
2022/07/20 02:31:37;;;;;;;5.72;2.53;;;21.10;94.50;;;;;;5007934;28;20796;-78
2022/07/20 02:34:03;;;;;;;5.65;2.28;;;21.10;94.90;;;;;;5003545;28;20070;-79
2022/07/20 02:36:29;;;;;;;4.63;2.22;;;21.00;95.30;;;;;;5020628;28;20451;-78
2022/07/20 02:38:55;;;;;;;5.65;2.45;;;21.10;95.10;;;;;;5020807;28;20045;-78
2022/07/20 02:41:20;;;;;;;11.63;2.45;;;21.00;95.00;;;;;;5019219;28;20042;-77
2022/07/20 02:43:46;;;;;;;12.13;3.08;;;21.00;95.20;;;;;;5001232;28;20526;-77
2022/07/20 02:46:11;;;;;;;5.20;2.20;;;21.10;95.00;;;;;;5018373;28;20038;-78
2022/07/20 02:48:38;;;;;;;5.32;2.13;;;20.90;95.40;;;;;;5019332;28;20451;-78
2022/07/20 02:51:04;;;;;;;7.72;2.85;;;20.90;95.10;;;;;;5007595;28;20037;-78
2022/07/20 02:53:30;;;;;;;9.77;2.50;;;20.90;95.30;;;;;;5004017;28;20503;-78
2022/07/20 02:55:55;;;;;;;7.15;2.42;;;20.80;95.00;;;;;;5018617;28;20113;-77
2022/07/20 02:58:21;;;;;;;11.43;2.67;;;20.80;95.10;;;;;;5015569;28;20576;-77
2022/07/20 03:00:47;;;;;;;5.28;2.30;;;20.80;95.10;;;;;;5019158;28;20044;-77
2022/07/20 03:03:12;;;;;;;5.20;2.10;;;20.80;95.40;;;;;;5014128;28;20117;-78
2022/07/20 03:05:38;;;;;;;5.97;2.80;;;20.80;95.30;;;;;;5023143;28;20183;-77
2022/07/20 03:08:06;;;;;;;3.28;1.90;;;20.70;95.30;;;;;;5019969;28;20045;-77
2022/07/20 03:10:31;;;;;;;6.72;2.50;;;20.70;95.10;;;;;;5018046;28;20049;-79
2022/07/20 03:12:57;;;;;;;5.00;2.38;;;20.70;95.00;;;;;;5019383;28;20145;-77
2022/07/20 03:15:22;;;;;;;3.22;2.42;;;20.70;95.40;;;;;;5015258;28;20061;-78
2022/07/20 03:17:50;;;;;;;5.00;2.10;;;20.70;95.40;;;;;;5020748;28;20041;-78
2022/07/20 03:20:21;;;;;;;7.38;2.22;;;20.70;95.00;;;;;;5018065;28;20111;-79
2022/07/20 03:22:47;;;;;;;11.15;2.85;;;20.60;95.30;;;;;;5018361;28;20389;-78
2022/07/20 03:25:12;;;;;;;4.05;2.50;;;20.70;94.70;;;;;;4995446;28;20057;-78
2022/07/20 03:27:38;;;;;;;8.60;2.80;;;20.70;94.70;;;;;;5018810;28;20488;-78
2022/07/20 03:30:05;;;;;;;11.40;3.35;;;20.70;94.50;;;;;;5018707;28;20041;-78
2022/07/20 03:32:31;;;;;;;5.82;2.67;;;20.70;94.40;;;;;;5019637;28;20088;-78
2022/07/20 03:34:57;;;;;;;8.65;2.90;;;20.70;94.70;;;;;;5021536;28;20091;-77
2022/07/20 03:37:23;;;;;;;4.10;2.47;;;20.70;94.80;;;;;;5003295;28;20049;-78
2022/07/20 03:39:48;;;;;;;6.78;2.88;;;20.70;95.20;;;;;;5020972;28;20034;-79
2022/07/20 03:42:14;;;;;;;9.20;2.25;;;20.60;95.20;;;;;;5012517;28;20135;-78
2022/07/20 03:44:39;;;;;;;6.78;2.92;;;20.60;95.30;;;;;;5011489;28;20048;-77
2022/07/20 03:47:05;;;;;;;4.80;2.58;;;20.60;95.40;;;;;;5020943;28;20049;-78
2022/07/20 03:49:31;;;;;;;5.60;2.20;;;20.60;95.20;;;;;;5022059;28;20076;-78
2022/07/20 03:51:56;;;;;;;2.67;2.40;;;20.60;95.10;;;;;;5016162;28;20037;-77
2022/07/20 03:54:22;;;;;;;10.38;2.78;;;20.60;95.00;;;;;;5022917;28;20052;-78
2022/07/20 03:56:47;;;;;;;3.58;2.58;;;20.60;95.00;;;;;;5024318;28;20091;-78
2022/07/20 03:59:13;;;;;;;5.93;2.47;;;20.60;95.10;;;;;;5021086;28;20492;-78
2022/07/20 04:01:39;;;;;;;4.10;2.55;;;20.70;94.90;;;;;;5004591;28;20083;-78
2022/07/20 04:04:05;;;;;;;4.30;2.30;;;20.70;94.80;;;;;;5019342;28;20134;-77
2022/07/20 04:06:30;;;;;;;9.20;2.67;;;20.80;94.70;;;;;;5019418;28;20463;-77
2022/07/20 04:08:56;;;;;;;5.03;3.08;;;20.80;94.60;;;;;;5017121;28;20113;-78
2022/07/20 04:11:22;;;;;;;6.25;2.75;;;20.80;94.90;;;;;;5024402;28;20485;-78
2022/07/20 04:13:47;;;;;;;7.35;2.85;;;21.00;94.90;;;;;;5023465;28;20053;-78
2022/07/20 04:16:13;;;;;;;7.18;2.78;;;21.60;94.50;;;;;;5021049;28;20456;-78
2022/07/20 04:18:39;;;;;;;5.88;2.90;;;22.40;94.10;;;;;;5019815;28;20124;-77
2022/07/20 04:21:04;;;;;;;12.98;2.65;;;23.30;93.20;;;;;;5013751;28;20083;-78
2022/07/20 04:23:30;;;;;;;14.90;2.85;;;24.00;92.70;;;;;;4994777;28;20125;-78
2022/07/20 04:25:55;;;;;;;3.85;2.35;;;24.80;92.00;;;;;;5012448;28;20458;-78
2022/07/20 04:28:21;;;;;;;4.50;2.55;;;25.40;91.60;;;;;;5022834;28;20038;-78
2022/07/20 04:30:47;;;;;;;4.93;2.72;;;26.10;90.70;;;;;;5018402;28;20037;-78
2022/07/20 04:33:12;;;;;;;6.72;2.35;;;26.70;91.10;;;;;;5008146;28;20125;-78
2022/07/20 04:35:38;;;;;;;5.40;2.45;;;27.20;90.50;;;;;;5021031;28;20507;-78
2022/07/20 04:38:03;;;;;;;4.72;2.15;;;27.60;89.50;;;;;;5018869;28;20037;-78
2022/07/20 04:40:29;;;;;;;4.10;2.35;;;28.10;89.40;;;;;;5010109;28;20049;-78
2022/07/20 04:42:54;;;;;;;4.80;2.60;;;28.50;87.90;;;;;;5022789;28;20041;-78
2022/07/20 04:45:20;;;;;;;4.20;2.42;;;28.80;87.00;;;;;;5019681;28;20049;-78
2022/07/20 04:47:46;;;;;;;9.25;2.47;;;28.70;86.20;;;;;;5013850;28;20041;-78
2022/07/20 04:50:12;;;;;;;6.35;2.53;;;28.00;86.10;;;;;;5019780;28;20046;-78
2022/07/20 04:52:41;;;;;;;2.83;2.28;;;27.30;87.80;;;;;;5021475;28;20175;-77
2022/07/20 04:55:07;;;;;;;13.80;3.30;;;26.60;88.70;;;;;;5021101;28;20091;-78
2022/07/20 04:57:33;;;;;;;18.30;3.95;;;25.90;90.10;;;;;;5019135;28;20046;-78
2022/07/20 04:59:58;;;;;;;12.80;3.38;;;25.50;89.40;;;;;;5004847;28;20052;-78
2022/07/20 05:02:24;;;;;;;5.63;2.80;;;25.30;90.40;;;;;;5020955;28;20037;-78
2022/07/20 05:04:50;;;;;;;10.85;2.88;;;25.50;90.30;;;;;;5023068;28;20056;-78
2022/07/20 05:07:15;;;;;;;5.18;2.55;;;25.40;90.50;;;;;;5017758;28;20045;-79
2022/07/20 05:09:41;;;;;;;7.22;2.47;;;25.20;90.20;;;;;;5020359;28;20076;-79
2022/07/20 05:12:07;;;;;;;8.38;3.05;;;24.90;90.50;;;;;;5022363;28;20458;-78
2022/07/20 05:14:33;;;;;;;10.60;3.47;;;24.70;90.70;;;;;;5019931;28;20076;-78
2022/07/20 05:16:59;;;;;;;7.35;2.67;;;24.70;90.30;;;;;;5000282;28;20485;-78
2022/07/20 05:19:24;;;;;;;7.78;2.72;;;24.80;90.60;;;;;;5021933;28;20045;-78
2022/07/20 05:21:50;;;;;;;7.28;3.00;;;25.10;90.90;;;;;;5004057;28;20164;-78
2022/07/20 05:24:15;;;;;;;9.75;3.03;;;25.80;90.90;;;;;;5021044;28;20100;-79
2022/07/20 05:26:41;;;;;;;6.15;2.40;;;27.30;90.00;;;;;;5021576;28;20147;-78
2022/07/20 05:29:06;;;;;;;13.80;3.00;;;29.00;87.90;;;;;;5002204;28;20045;-78
2022/07/20 05:31:32;;;;;;;4.18;2.53;;;30.60;84.70;;;;;;4994753;28;20094;-78
2022/07/20 05:33:58;;;;;;;4.85;2.53;;;31.90;82.00;;;;;;5020123;28;20416;-78
2022/07/20 05:36:23;;;;;;;5.65;2.88;;;33.00;79.70;;;;;;5021129;28;20095;-79
2022/07/20 05:38:49;;;;;;;16.50;2.83;;;34.30;77.80;;;;;;5017749;28;20506;-78
2022/07/20 05:41:15;;;;;;;10.38;3.05;;;35.30;75.50;;;;;;5017872;28;20045;-79
2022/07/20 05:43:40;;;;;;;6.28;3.42;;;36.00;72.70;;;;;;5020271;28;20037;-79
2022/07/20 05:46:06;;;;;;;8.27;3.65;;;36.50;70.60;;;;;;5019786;28;20037;-78
2022/07/20 05:48:32;;;;;;;6.88;3.80;;;36.90;68.60;;;;;;5018632;28;20061;-79
2022/07/20 05:50:57;;;;;;;9.05;2.88;;;36.80;67.10;;;;;;5018051;28;20091;-78
2022/07/20 05:53:23;;;;;;;6.93;3.05;;;35.80;65.90;;;;;;5017855;28;20046;-79
2022/07/20 05:55:48;;;;;;;8.18;2.70;;;35.10;66.50;;;;;;5008439;28;20124;-80
2022/07/20 05:58:14;;;;;;;8.70;3.03;;;34.50;66.90;;;;;;5017735;28;20044;-79
2022/07/20 06:00:40;;;;;;;13.55;2.97;;;33.70;67.20;;;;;;5016961;28;20128;-78
2022/07/20 06:03:06;;;;;;;10.50;3.28;;;33.20;67.50;;;;;;5019243;28;20078;-78
2022/07/20 06:05:32;;;;;;;10.40;3.05;;;32.60;68.00;;;;;;5018496;28;20084;-78
2022/07/20 06:08:00;;;;;;;5.65;3.30;;;32.20;68.70;;;;;;5000122;28;20089;-79
2022/07/20 06:10:27;;;;;;;8.00;3.25;;;31.90;69.60;;;;;;5017675;28;20076;-78
2022/07/20 06:12:55;;;;;;;7.28;2.95;;;31.60;69.60;;;;;;5019195;28;20559;-79
2022/07/20 06:15:20;;;;;;;4.80;2.90;;;31.40;70.90;;;;;;5018496;28;20050;-79
2022/07/20 06:17:46;;;;;;;12.23;3.00;;;31.30;70.10;;;;;;5004204;28;20030;-79
2022/07/20 06:20:13;;;;;;;5.88;2.47;;;31.30;70.30;;;;;;5015849;28;20049;-78
2022/07/20 06:22:40;;;;;;;5.55;2.97;;;31.00;70.30;;;;;;5019685;28;20492;-79
2022/07/20 06:25:08;;;;;;;7.80;3.42;;;31.10;70.20;;;;;;5001216;28;21265;-78
2022/07/20 06:27:34;;;;;;;6.93;2.60;;;31.10;70.70;;;;;;5020600;28;20492;-79
2022/07/20 06:30:00;;;;;;;16.48;3.17;;;31.10;71.00;;;;;;5007502;28;20044;-78
2022/07/20 06:32:26;;;;;;;5.53;3.00;;;31.10;71.40;;;;;;5017241;28;20057;-78
2022/07/20 06:34:52;;;;;;;8.18;2.85;;;31.10;71.00;;;;;;5019195;28;20092;-79
2022/07/20 06:37:18;;;;;;;11.75;2.80;;;31.20;71.20;;;;;;5020873;28;20073;-78
2022/07/20 06:39:44;;;;;;;10.10;2.88;;;31.20;71.50;;;;;;5018303;28;20092;-78
2022/07/20 06:42:10;;;;;;;29.15;4.18;;;31.20;70.70;;;;;;5011496;28;20083;-78
2022/07/20 06:44:36;;;;;;;5.43;2.45;;;31.30;71.40;;;;;;5021594;28;20049;-78
2022/07/20 06:47:01;;;;;;;13.25;3.50;;;31.60;71.10;;;;;;5023917;28;20038;-78
2022/07/20 06:49:27;;;;;;;13.70;3.60;;;31.60;71.00;;;;;;5003152;28;20071;-78
2022/07/20 06:51:53;;;;;;;22.50;3.78;;;31.80;71.10;;;;;;5015200;28;20099;-78
2022/07/20 06:54:19;;;;;;;24.85;4.32;;;31.90;71.80;;;;;;5018926;28;20053;-78
2022/07/20 06:56:45;;;;;;;9.05;3.38;;;32.00;71.00;;;;;;5021517;28;20029;-78
2022/07/20 06:59:10;;;;;;;14.35;3.78;;;32.10;71.20;;;;;;5017475;28;20034;-78
2022/07/20 07:01:36;;;;;;;14.90;4.05;;;32.20;71.20;;;;;;5018163;28;20097;-78
2022/07/20 07:04:01;;;;;;;8.05;3.63;;;32.40;70.90;;;;;;5014876;28;20124;-78
2022/07/20 07:06:28;;;;;;;11.98;6.10;;;32.40;71.00;;;;;;5001260;28;20059;-78
2022/07/20 07:08:55;;;;;;;9.98;4.85;;;32.50;71.20;;;;;;5009519;28;20128;-79
2022/07/20 07:11:21;;;;;;;10.43;5.07;;;32.50;71.00;;;;;;5019135;28;20111;-78
2022/07/20 07:13:46;;;;;;;11.55;5.18;;;32.60;72.20;;;;;;5019390;28;20034;-78
2022/07/20 07:16:12;;;;;;;12.15;4.70;;;32.60;72.10;;;;;;5005877;28;20488;-79
2022/07/20 07:18:37;;;;;;;15.05;6.05;;;32.70;72.70;;;;;;5023939;28;20045;-78
2022/07/20 07:21:03;;;;;;;12.07;5.68;;;32.70;73.00;;;;;;5008153;28;20037;-78
2022/07/20 07:23:29;;;;;;;12.93;5.53;;;32.60;72.90;;;;;;5008897;28;20045;-79
2022/07/20 07:25:54;;;;;;;14.95;5.80;;;32.60;73.20;;;;;;5010968;28;20481;-78
2022/07/20 07:28:20;;;;;;;21.00;5.75;;;32.70;73.70;;;;;;5006385;28;20106;-79
2022/07/20 07:30:46;;;;;;;11.65;5.97;;;32.70;73.60;;;;;;5005169;28;20122;-78
2022/07/20 07:33:11;;;;;;;17.38;5.18;;;32.80;74.20;;;;;;5024561;28;20199;-78
2022/07/20 07:35:37;;;;;;;8.50;5.43;;;32.80;74.80;;;;;;5023439;28;20151;-79
2022/07/20 07:38:02;;;;;;;17.38;6.07;;;32.90;75.30;;;;;;5009810;28;20033;-79
2022/07/20 07:40:28;;;;;;;10.18;5.63;;;32.80;75.30;;;;;;5003529;28;20070;-78
2022/07/20 07:42:54;;;;;;;13.23;6.13;;;32.90;75.70;;;;;;5020832;28;20053;-78
2022/07/20 07:45:19;;;;;;;16.30;7.35;;;32.90;76.80;;;;;;5015526;28;20052;-78
2022/07/20 07:47:46;;;;;;;13.55;7.60;;;33.00;78.00;;;;;;5004679;28;20048;-78
2022/07/20 07:50:12;;;;;;;14.25;8.43;;;33.00;78.50;;;;;;5011016;28;20050;-79
2022/07/20 07:52:38;;;;;;;18.13;10.32;;;33.10;79.30;;;;;;5016005;28;20506;-78
2022/07/20 07:55:04;;;;;;;15.75;9.73;;;32.90;79.60;;;;;;5004374;28;20041;-79
2022/07/20 07:57:30;;;;;;;21.85;10.57;;;33.00;80.50;;;;;;5023423;28;20117;-79
2022/07/20 07:59:56;;;;;;;19.73;10.43;;;32.90;81.00;;;;;;5005002;28;20614;-79
2022/07/20 08:02:21;;;;;;;18.67;10.70;;;32.90;81.80;;;;;;5023497;28;20041;-79
2022/07/20 08:04:47;;;;;;;13.38;10.18;;;32.90;82.30;;;;;;5021621;28;20051;-78
2022/07/20 08:07:13;;;;;;;18.13;11.18;;;32.90;82.70;;;;;;5023104;28;20081;-79
2022/07/20 08:09:39;;;;;;;19.20;11.30;;;33.00;82.70;;;;;;5017761;28;20115;-78
2022/07/20 08:12:05;;;;;;;29.83;11.52;;;33.00;83.20;;;;;;5022486;28;20049;-78
2022/07/20 08:14:30;;;;;;;25.95;11.27;;;33.00;83.50;;;;;;5024534;28;20048;-78
2022/07/20 08:16:56;;;;;;;19.90;12.35;;;32.90;84.10;;;;;;5006756;28;20060;-79
2022/07/20 08:19:22;;;;;;;19.63;10.95;;;33.00;84.10;;;;;;5017306;28;20065;-80
2022/07/20 08:21:47;;;;;;;22.42;11.70;;;32.90;84.50;;;;;;5004373;28;20132;-78
2022/07/20 08:24:14;;;;;;;20.92;12.23;;;32.80;85.40;;;;;;5023709;28;20044;-79
2022/07/20 08:26:40;;;;;;;20.05;11.75;;;32.90;86.00;;;;;;5020874;28;20042;-79
2022/07/20 08:29:06;;;;;;;15.80;12.30;;;32.90;87.80;;;;;;5019335;28;20058;-79
2022/07/20 08:31:31;;;;;;;30.98;14.40;;;33.10;88.80;;;;;;5017736;28;20041;-79
2022/07/20 08:33:57;;;;;;;25.63;14.20;;;33.20;88.70;;;;;;5021960;28;20034;-79
2022/07/20 08:36:22;;;;;;;23.55;13.85;;;33.40;88.40;;;;;;5021911;28;20042;-79
2022/07/20 08:38:48;;;;;;;28.02;13.85;;;33.30;88.10;;;;;;5020657;28;20029;-79
2022/07/20 08:41:17;;;;;;;28.42;15.38;;;33.20;88.60;;;;;;5019396;28;20937;-79
2022/07/20 08:43:43;;;;;;;26.10;15.27;;;33.10;88.10;;;;;;5020359;28;20041;-79
2022/07/20 08:46:08;;;;;;;21.45;14.80;;;32.90;88.40;;;;;;5019015;28;20043;-78
2022/07/20 08:48:39;;;;;;;20.50;14.18;;;32.90;88.50;;;;;;5023931;28;20084;-82
2022/07/20 08:51:04;;;;;;;20.70;14.30;;;32.90;88.80;;;;;;5021671;28;20068;-78
2022/07/20 08:53:30;;;;;;;28.85;15.00;;;33.00;89.50;;;;;;5020933;28;20445;-79
2022/07/20 08:55:56;;;;;;;25.40;14.60;;;32.90;89.10;;;;;;5022413;28;20558;-78
2022/07/20 08:58:22;;;;;;;28.83;15.90;;;33.10;90.10;;;;;;5011807;28;20095;-79
2022/07/20 09:00:47;;;;;;;32.05;16.60;;;33.20;89.70;;;;;;5010482;28;20440;-79
2022/07/20 09:03:13;;;;;;;73.97;19.48;;;33.10;88.90;;;;;;5024402;28;20045;-78
2022/07/20 09:05:40;;;;;;;32.42;17.25;;;33.00;87.70;;;;;;5013592;28;20052;-79
2022/07/20 09:08:10;;;;;;;30.90;16.30;;;32.80;87.60;;;;;;5022588;28;20053;-79
2022/07/20 09:10:38;;;;;;;45.55;16.65;;;32.70;87.50;;;;;;5017183;28;20389;-79
2022/07/20 09:13:12;;;;;;;33.80;17.00;;;32.90;88.60;;;;;;5013141;28;20046;-80
2022/07/20 09:15:53;;;;;;;30.73;16.27;;;32.90;87.80;;;;;;5019238;28;20049;-79
2022/07/20 09:18:34;;;;;;;34.72;18.83;;;32.90;88.20;;;;;;5020955;28;20050;-78
2022/07/20 09:21:05;;;;;;;25.98;18.50;;;32.90;87.90;;;;;;5022675;28;20543;-80
2022/07/20 09:23:42;;;;;;;30.50;17.23;;;33.00;90.00;;;;;;5004115;28;20167;-80
2022/07/20 09:26:11;;;;;;;43.95;18.73;;;33.00;89.20;;;;;;5023396;28;20057;-79
2022/07/20 09:28:42;;;;;;;35.80;18.00;;;32.90;86.40;;;;;;5006586;28;20164;-79
2022/07/20 09:31:35;;;;;;;31.80;18.98;;;32.80;86.60;;;;;;5020872;28;20082;-78
2022/07/20 09:34:09;;;;;;;31.67;17.00;;;32.80;87.10;;;;;;5019096;28;20029;-79
2022/07/20 09:36:43;;;;;;;36.73;17.73;;;32.90;85.70;;;;;;5018688;28;20463;-79
2022/07/20 09:39:17;;;;;;;24.45;16.55;;;32.80;85.90;;;;;;5018717;28;20063;-79
2022/07/20 09:41:54;;;;;;;29.85;15.70;;;32.90;85.00;;;;;;5020278;28;20038;-79
2022/07/20 09:44:28;;;;;;;27.75;15.48;;;32.90;84.50;;;;;;5008520;28;20554;-79
2022/07/20 09:46:54;;;;;;;;;;;32.80;85.00;;;;;;5005942;28;20048;-79
2022/07/20 09:49:28;;;;;;;28.83;14.30;;;32.90;86.70;;;;;;5006213;28;19925;-78
2022/07/20 09:52:01;;;;;;;17.88;13.85;;;33.00;85.60;;;;;;5021304;28;20078;-78
2022/07/20 09:54:27;;;;;;;27.45;14.52;;;33.10;85.90;;;;;;5010047;28;20053;-78
2022/07/20 09:56:52;;;;;;;23.85;13.75;;;33.10;86.00;;;;;;5019372;28;20103;-78
2022/07/20 09:59:19;;;;;;;21.48;12.68;;;33.10;87.20;;;;;;5016509;28;20060;-78
2022/07/20 10:01:53;;;;;;;17.77;12.75;;;33.10;87.40;;;;;;5000939;28;20064;-79
2022/07/20 10:04:20;;;;;;;27.07;13.43;;;33.10;85.50;;;;;;5019483;28;20117;-78
2022/07/20 10:06:47;;;;;;;25.05;12.80;;;33.10;85.30;;;;;;5002783;28;20116;-78
2022/07/20 10:09:17;;;;;;;19.38;13.23;;;33.20;85.30;;;;;;5002849;28;20046;-78
2022/07/20 10:11:44;;;;;;;18.30;12.73;;;33.20;83.40;;;;;;5019760;28;20037;-79
2022/07/20 10:14:11;;;;;;;34.88;12.15;;;33.20;83.50;;;;;;5007210;28;20151;-78
2022/07/20 10:16:49;;;;;;;18.42;11.60;;;33.00;82.30;;;;;;5007574;28;20080;-78
2022/07/20 10:19:16;;;;;;;14.75;10.80;;;33.10;83.20;;;;;;5017680;28;20053;-78
2022/07/20 10:21:46;;;;;;;16.65;10.73;;;33.10;80.90;;;;;;5023004;28;20052;-78
2022/07/20 10:24:22;;;;;;;14.35;9.95;;;32.90;80.20;;;;;;5022937;28;20052;-79
2022/07/20 10:26:50;;;;;;;15.48;10.38;;;32.90;79.40;;;;;;5020545;28;20049;-78
2022/07/20 10:29:37;;;;;;;20.02;11.02;;;33.00;80.60;;;;;;5011437;28;20095;-78
2022/07/20 10:32:09;;;;;;;16.00;10.07;;;32.90;79.70;;;;;;5006741;28;20071;-79
2022/07/20 10:35:02;;;;;;;15.80;9.75;;;32.90;80.80;;;;;;5015597;28;20060;-78
2022/07/20 10:37:42;;;;;;;14.50;9.38;;;32.90;81.20;;;;;;5016274;28;20041;-78
2022/07/20 10:40:22;;;;;;;16.10;9.43;;;32.90;82.10;;;;;;5018746;28;20063;-79
2022/07/20 10:42:48;;;;;;;16.67;9.48;;;32.90;82.20;;;;;;5003225;28;20046;-78
2022/07/20 10:45:16;;;;;;;36.15;9.95;;;32.90;81.50;;;;;;5019817;28;20056;-78
2022/07/20 10:47:45;;;;;;;14.13;8.77;;;32.90;80.80;;;;;;5012283;28;20059;-79
2022/07/20 10:50:22;;;;;;;13.98;7.93;;;32.90;80.20;;;;;;5017246;28;20041;-79
2022/07/20 10:52:53;;;;;;;13.88;8.57;;;32.90;80.80;;;;;;5007188;28;20053;-78
2022/07/20 10:55:37;;;;;;;16.48;7.95;;;32.90;79.40;;;;;;5014678;28;20045;-79
2022/07/20 10:58:11;;;;;;;15.07;8.95;;;32.90;82.10;;;;;;5018391;28;20113;-78
2022/07/20 11:00:46;;;;;;;12.05;8.20;;;33.00;80.70;;;;;;5018073;28;20042;-79
2022/07/20 11:03:11;;;;;;;;;;;33.00;81.30;;;;;;5020056;28;20038;-79
2022/07/20 11:05:37;;;;;;;12.98;7.78;;;33.00;78.60;;;;;;5019537;28;19928;-79
2022/07/20 11:08:07;;;;;;;11.80;7.65;;;33.20;80.60;;;;;;4998641;28;20057;-78
2022/07/20 11:10:33;;;;;;;12.85;7.65;;;33.30;80.30;;;;;;5015190;28;20124;-79
2022/07/20 11:13:02;;;;;;;17.42;8.07;;;33.40;81.20;;;;;;5000984;28;20120;-78
2022/07/20 11:15:45;;;;;;;12.38;7.30;;;33.50;81.10;;;;;;5002927;28;20045;-79
2022/07/20 11:18:13;;;;;;;21.10;7.82;;;33.40;79.00;;;;;;5013363;28;20068;-79
2022/07/20 11:20:54;;;;;;;18.42;8.35;;;33.40;78.70;;;;;;5001938;28;20037;-78
2022/07/20 11:23:22;;;;;;;13.77;7.53;;;33.20;76.00;;;;;;5019352;28;20049;-79
2022/07/20 11:25:58;;;;;;;15.52;7.60;;;33.20;78.80;;;;;;5018474;28;20057;-79
2022/07/20 11:28:27;;;;;;;19.80;8.23;;;33.20;79.10;;;;;;5020500;28;20095;-80
2022/07/20 11:30:54;;;;;;;18.67;7.55;;;33.20;77.10;;;;;;5014928;28;20044;-78
2022/07/20 11:33:31;;;;;;;12.50;7.30;;;33.20;78.50;;;;;;5018957;28;20049;-78
2022/07/20 11:36:02;;;;;;;9.35;7.03;;;33.20;77.30;;;;;;5018505;28;20116;-78
2022/07/20 11:38:41;;;;;;;14.95;6.35;;;33.20;78.40;;;;;;5003439;28;20049;-78
2022/07/20 11:41:12;;;;;;;34.25;8.60;;;33.30;74.10;;;;;;5022645;28;20084;-78
2022/07/20 11:43:38;;;;;;;29.48;8.38;;;33.10;75.60;;;;;;5023261;28;20041;-78
2022/07/20 11:46:08;;;;;;;23.80;6.82;;;33.00;73.40;;;;;;5023458;28;20033;-78
2022/07/20 11:48:33;;;;;;;14.98;6.03;;;33.20;73.30;;;;;;5003424;28;20064;-79
2022/07/20 11:50:59;;;;;;;8.82;5.68;;;33.00;74.00;;;;;;5017749;28;20037;-78
2022/07/20 11:53:27;;;;;;;10.15;6.70;;;32.90;73.50;;;;;;5019541;28;20349;-78
2022/07/20 11:55:55;;;;;;;10.35;6.47;;;32.90;74.20;;;;;;5009610;28;20498;-78
2022/07/20 11:58:33;;;;;;;8.85;6.47;;;32.80;73.80;;;;;;5023655;28;20954;-79
2022/07/20 12:01:04;;;;;;;9.20;5.75;;;32.60;75.40;;;;;;5022536;28;20038;-78
2022/07/20 12:03:34;;;;;;;9.73;5.43;;;32.50;76.80;;;;;;5011817;28;20085;-78
2022/07/20 12:06:08;;;;;;;8.57;5.68;;;32.50;76.90;;;;;;5013458;28;20084;-78
2022/07/20 12:08:35;;;;;;;12.20;7.47;;;32.40;76.60;;;;;;5020897;28;20128;-80
2022/07/20 12:11:02;;;;;;;14.82;6.05;;;32.50;77.90;;;;;;5019902;28;20381;-78
2022/07/20 12:13:27;;;;;;;12.15;5.80;;;32.60;79.30;;;;;;5005209;28;20038;-79
2022/07/20 12:16:01;;;;;;;18.83;5.53;;;32.60;77.80;;;;;;5021145;28;20053;-78
2022/07/20 12:18:38;;;;;;;20.23;7.15;;;32.60;77.20;;;;;;5023923;28;20559;-78
2022/07/20 12:21:05;;;;;;;12.30;5.63;;;32.60;78.30;;;;;;4994281;28;20038;-79
2022/07/20 12:23:33;;;;;;;12.70;5.95;;;32.70;77.30;;;;;;5019285;28;20030;-78
2022/07/20 12:25:58;;;;;;;8.48;4.53;;;32.70;77.00;;;;;;5022094;28;20092;-78
2022/07/20 12:28:29;;;;;;;8.70;4.70;;;32.70;77.30;;;;;;5021955;28;20713;-79
2022/07/20 12:31:15;;;;;;;8.43;5.50;;;32.70;75.90;;;;;;5021385;28;20338;-79
2022/07/20 12:34:19;;;;;;;12.07;5.38;;;32.70;75.60;;;;;;5023143;28;20037;-79
2022/07/20 12:36:49;;;;;;;8.57;4.40;;;32.70;77.80;;;;;;4954042;28;20043;-78
2022/07/20 12:39:36;;;;;;;6.88;5.07;;;32.70;75.90;;;;;;4968598;28;20099;-79
2022/07/20 12:42:09;;;;;;;10.60;5.38;;;32.60;76.30;;;;;;4993851;28;20046;-78
2022/07/20 12:44:35;;;;;;;9.52;5.15;;;32.60;76.20;;;;;;5022067;28;20037;-78